createdAt,value
2023-02-05T00:00:05.536Z,357.00
2023-02-05T00:00:19.521Z,357.00
2023-02-05T00:00:33.510Z,357.00
2023-02-05T00:00:47.515Z,357.00
2023-02-05T00:01:01.504Z,358.00
2023-02-05T00:01:15.496Z,358.00
2023-02-05T00:01:29.485Z,357.00
2023-02-05T00:01:43.478Z,357.00
2023-02-05T00:01:57.558Z,358.00
2023-02-05T00:02:11.586Z,357.00
2023-02-05T00:02:25.673Z,357.00
2023-02-05T00:02:39.675Z,356.00
2023-02-05T00:02:53.669Z,357.00
2023-02-05T00:03:21.640Z,357.00
2023-02-05T00:03:35.725Z,357.00
2023-02-05T00:03:49.744Z,356.00
2023-02-05T00:04:03.731Z,355.00
2023-02-05T00:04:17.729Z,355.00
2023-02-05T00:04:31.718Z,355.00
2023-02-05T00:04:45.708Z,354.00
2023-02-05T00:04:59.695Z,353.00
2023-02-05T00:05:13.688Z,354.00
2023-02-05T00:05:27.704Z,353.00
2023-02-05T00:05:41.699Z,353.00
2023-02-05T00:05:55.710Z,352.00
2023-02-05T00:06:09.723Z,352.00
2023-02-05T00:06:23.698Z,352.00
2023-02-05T00:06:37.699Z,353.00
2023-02-05T00:06:51.676Z,353.00
2023-02-05T00:07:05.661Z,353.00
2023-02-05T00:07:19.659Z,353.00
2023-02-05T00:07:33.660Z,353.00
2023-02-05T00:08:01.632Z,354.00
2023-02-05T00:08:15.615Z,354.00
2023-02-05T00:08:29.618Z,355.00
2023-02-05T00:08:43.615Z,355.00
2023-02-05T00:08:57.613Z,356.00
2023-02-05T00:09:11.611Z,355.00
2023-02-05T00:09:25.609Z,354.00
2023-02-05T00:09:39.597Z,354.00
2023-02-05T00:09:53.601Z,354.00
2023-02-05T00:10:07.610Z,353.00
2023-02-05T00:10:21.622Z,353.00
2023-02-05T00:10:35.604Z,353.00
2023-02-05T00:10:49.640Z,354.00
2023-02-05T00:11:03.685Z,353.00
2023-02-05T00:11:31.657Z,352.00
2023-02-05T00:11:45.683Z,353.00
2023-02-05T00:11:59.674Z,353.00
2023-02-05T00:12:13.676Z,354.00
2023-02-05T00:12:27.666Z,353.00
2023-02-05T00:12:41.655Z,352.00
2023-02-05T00:12:55.636Z,352.00
2023-02-05T00:13:09.621Z,352.00
2023-02-05T00:13:23.613Z,352.00
2023-02-05T00:13:37.657Z,351.00
2023-02-05T00:13:51.661Z,351.00
2023-02-05T00:14:05.655Z,350.00
2023-02-05T00:14:19.663Z,351.00
2023-02-05T00:14:33.661Z,351.00
2023-02-05T00:14:47.672Z,352.00
2023-02-05T00:15:01.656Z,352.00
2023-02-05T00:15:15.670Z,352.00
2023-02-05T00:15:29.649Z,352.00
2023-02-05T00:15:43.638Z,352.00
2023-02-05T00:16:11.643Z,351.00
2023-02-05T00:16:25.741Z,351.00
2023-02-05T00:16:39.945Z,352.00
2023-02-05T00:16:54.119Z,353.00
2023-02-05T00:17:08.127Z,353.00
2023-02-05T00:17:22.118Z,353.00
2023-02-05T00:17:36.125Z,354.00
2023-02-05T00:17:50.118Z,354.00
2023-02-05T00:18:04.109Z,354.00
2023-02-05T00:18:18.097Z,353.00
2023-02-05T00:18:32.086Z,353.00
2023-02-05T00:18:46.071Z,352.00
2023-02-05T00:19:00.063Z,351.00
2023-02-05T00:19:14.069Z,351.00
2023-02-05T00:19:28.072Z,351.00
2023-02-05T00:19:42.067Z,351.00
2023-02-05T00:19:56.057Z,350.00
2023-02-05T00:20:10.038Z,352.00
2023-02-05T00:20:24.022Z,352.00
2023-02-05T00:20:38.034Z,351.00
2023-02-05T00:20:52.025Z,351.00
2023-02-05T00:21:19.982Z,352.00
2023-02-05T00:21:33.967Z,352.00
2023-02-05T00:21:49.833Z,352.00
2023-02-05T00:22:01.464Z,351.00
2023-02-05T00:22:15.478Z,352.00
2023-02-05T00:22:29.471Z,352.00
2023-02-05T00:22:43.462Z,352.00
2023-02-05T00:22:57.458Z,351.00
2023-02-05T00:23:11.471Z,352.00
2023-02-05T00:23:25.528Z,351.00
2023-02-05T00:23:39.524Z,352.00
2023-02-05T00:23:53.516Z,351.00
2023-02-05T00:24:21.468Z,351.00
2023-02-05T00:24:35.452Z,350.00
2023-02-05T00:24:49.432Z,351.00
2023-02-05T00:25:03.433Z,350.00
2023-02-05T00:25:17.416Z,351.00
2023-02-05T00:25:31.791Z,351.00
2023-02-05T00:25:45.983Z,350.00
2023-02-05T00:25:59.979Z,350.00
2023-02-05T00:26:13.955Z,350.00
2023-02-05T00:26:27.948Z,351.00
2023-02-05T00:26:41.927Z,351.00
2023-02-05T00:26:55.914Z,351.00
2023-02-05T00:27:09.903Z,351.00
2023-02-05T00:27:23.902Z,351.00
2023-02-05T00:27:37.893Z,350.00
2023-02-05T00:27:51.932Z,350.00
2023-02-05T00:28:05.989Z,351.00
2023-02-05T00:28:20.015Z,350.00
2023-02-05T00:28:34.001Z,351.00
2023-02-05T00:28:48.004Z,351.00
2023-02-05T00:29:01.984Z,351.00
2023-02-05T00:29:29.969Z,350.00
2023-02-05T00:29:43.956Z,351.00
2023-02-05T00:29:57.958Z,350.00
2023-02-05T00:30:11.968Z,351.00
2023-02-05T00:30:25.954Z,351.00
2023-02-05T00:30:40.041Z,351.00
2023-02-05T00:30:54.167Z,351.00
2023-02-05T00:31:08.368Z,351.00
2023-02-05T00:31:22.479Z,351.00
2023-02-05T00:31:36.675Z,351.00
2023-02-05T00:31:50.824Z,352.00
2023-02-05T00:32:04.827Z,353.00
2023-02-05T00:32:18.809Z,353.00
2023-02-05T00:32:32.807Z,353.00
2023-02-05T00:32:46.798Z,352.00
2023-02-05T00:33:00.782Z,352.00
2023-02-05T00:33:14.784Z,354.00
2023-02-05T00:33:28.752Z,353.00
2023-02-05T00:33:42.755Z,354.00
2023-02-05T00:34:10.738Z,354.00
2023-02-05T00:34:24.732Z,354.00
2023-02-05T00:34:38.738Z,353.00
2023-02-05T00:34:52.721Z,353.00
2023-02-05T00:35:06.718Z,352.00
2023-02-05T00:35:20.727Z,352.00
2023-02-05T00:35:35.169Z,352.00
2023-02-05T00:35:49.344Z,352.00
2023-02-05T00:36:03.334Z,351.00
2023-02-05T00:36:17.320Z,351.00
2023-02-05T00:36:31.328Z,352.00
2023-02-05T00:36:45.311Z,351.00
2023-02-05T00:36:59.310Z,351.00
2023-02-05T00:37:13.317Z,351.00
2023-02-05T00:37:27.304Z,351.00
2023-02-05T00:37:41.290Z,352.00
2023-02-05T00:37:55.286Z,352.00
2023-02-05T00:38:09.262Z,352.00
2023-02-05T00:38:23.252Z,352.00
2023-02-05T00:38:51.233Z,352.00
2023-02-05T00:39:05.213Z,351.00
2023-02-05T00:39:19.213Z,351.00
2023-02-05T00:39:33.202Z,350.00
2023-02-05T00:39:47.194Z,351.00
2023-02-05T00:40:01.182Z,351.00
2023-02-05T00:40:15.174Z,351.00
2023-02-05T00:40:29.163Z,352.00
2023-02-05T00:40:43.164Z,352.00
2023-02-05T00:40:57.157Z,351.00
2023-02-05T00:41:11.151Z,350.00
2023-02-05T00:41:25.141Z,351.00
2023-02-05T00:41:39.140Z,351.00
2023-02-05T00:41:53.125Z,352.00
2023-02-05T00:42:21.099Z,351.00
2023-02-05T00:42:35.080Z,350.00
2023-02-05T00:42:49.066Z,351.00
2023-02-05T00:43:03.056Z,352.00
2023-02-05T00:43:17.047Z,350.00
2023-02-05T00:43:31.023Z,350.00
2023-02-05T00:43:45.007Z,351.00
2023-02-05T00:43:59.022Z,350.00
2023-02-05T00:44:13.009Z,350.00
2023-02-05T00:44:26.993Z,350.00
2023-02-05T00:44:40.984Z,349.00
2023-02-05T00:44:54.965Z,348.00
2023-02-05T00:45:08.982Z,348.00
2023-02-05T00:45:22.961Z,348.00
2023-02-05T00:45:36.954Z,348.00
2023-02-05T00:45:50.954Z,349.00
2023-02-05T00:46:05.010Z,349.00
2023-02-05T00:46:18.994Z,350.00
2023-02-05T00:46:33.004Z,351.00
2023-02-05T00:47:00.994Z,351.00
2023-02-05T00:47:14.982Z,351.00
2023-02-05T00:47:28.979Z,352.00
2023-02-05T00:47:42.967Z,352.00
2023-02-05T00:47:56.960Z,353.00
2023-02-05T00:48:10.940Z,353.00
2023-02-05T00:48:24.977Z,352.00
2023-02-05T00:48:38.964Z,352.00
2023-02-05T00:48:52.969Z,352.00
2023-02-05T00:49:06.966Z,352.00
2023-02-05T00:49:20.952Z,352.00
2023-02-05T00:49:34.956Z,352.00
2023-02-05T00:49:48.946Z,351.00
2023-02-05T00:50:02.926Z,351.00
2023-02-05T00:50:16.918Z,352.00
2023-02-05T00:50:30.904Z,351.00
2023-02-05T00:50:44.890Z,350.00
2023-02-05T00:50:58.872Z,350.00
2023-02-05T00:51:12.865Z,350.00
2023-02-05T00:51:40.820Z,350.00
2023-02-05T00:51:54.809Z,351.00
2023-02-05T00:52:08.824Z,351.00
2023-02-05T00:52:22.918Z,351.00
2023-02-05T00:52:36.964Z,352.00
2023-02-05T00:52:50.963Z,352.00
2023-02-05T00:53:04.949Z,353.00
2023-02-05T00:53:18.928Z,353.00
2023-02-05T00:53:32.921Z,354.00
2023-02-05T00:53:46.904Z,355.00
2023-02-05T00:54:00.895Z,356.00
2023-02-05T00:54:14.879Z,357.00
2023-02-05T00:54:28.871Z,357.00
2023-02-05T00:54:42.857Z,357.00
2023-02-05T00:54:56.856Z,357.00
2023-02-05T00:55:10.843Z,357.00
2023-02-05T00:55:24.822Z,357.00
2023-02-05T00:55:38.833Z,357.00
2023-02-05T00:55:52.838Z,357.00
2023-02-05T00:56:20.816Z,357.00
2023-02-05T00:56:34.958Z,356.00
2023-02-05T00:56:48.953Z,356.00
2023-02-05T00:57:02.950Z,356.00
2023-02-05T00:57:16.947Z,356.00
2023-02-05T00:57:30.929Z,356.00
2023-02-05T00:57:44.940Z,356.00
2023-02-05T00:57:58.932Z,356.00
2023-02-05T00:58:12.911Z,355.00
2023-02-05T00:58:26.894Z,355.00
2023-02-05T00:58:40.873Z,355.00
2023-02-05T00:58:54.856Z,356.00
2023-02-05T00:59:08.849Z,356.00
2023-02-05T00:59:24.047Z,356.00
2023-02-05T00:59:49.519Z,357.00
2023-02-05T01:00:03.500Z,357.00
2023-02-05T01:00:17.514Z,359.00
2023-02-05T01:00:31.501Z,358.00
2023-02-05T01:00:45.513Z,358.00
2023-02-05T01:00:59.511Z,357.00
2023-02-05T01:01:13.522Z,356.00
2023-02-05T01:01:27.552Z,356.00
2023-02-05T01:01:41.539Z,355.00
2023-02-05T01:01:55.537Z,355.00
2023-02-05T01:02:09.581Z,355.00
2023-02-05T01:02:23.707Z,356.00
2023-02-05T01:02:37.790Z,354.00
2023-02-05T01:02:51.877Z,354.00
2023-02-05T01:03:05.887Z,354.00
2023-02-05T01:03:19.871Z,354.00
2023-02-05T01:03:33.890Z,353.00
2023-02-05T01:03:47.873Z,353.00
2023-02-05T01:04:01.871Z,354.00
2023-02-05T01:04:29.845Z,355.00
2023-02-05T01:04:43.832Z,356.00
2023-02-05T01:04:57.833Z,355.00
2023-02-05T01:05:11.822Z,355.00
2023-02-05T01:05:25.838Z,355.00
2023-02-05T01:05:39.843Z,355.00
2023-02-05T01:05:53.835Z,355.00
2023-02-05T01:06:07.808Z,355.00
2023-02-05T01:06:21.794Z,356.00
2023-02-05T01:06:35.778Z,357.00
2023-02-05T01:06:49.773Z,357.00
2023-02-05T01:07:03.777Z,357.00
2023-02-05T01:07:31.739Z,357.00
2023-02-05T01:07:45.735Z,357.00
2023-02-05T01:07:59.734Z,358.00
2023-02-05T01:08:13.732Z,358.00
2023-02-05T01:08:27.742Z,358.00
2023-02-05T01:08:41.740Z,358.00
2023-02-05T01:08:55.739Z,357.00
2023-02-05T01:09:09.727Z,358.00
2023-02-05T01:09:23.719Z,357.00
2023-02-05T01:09:37.733Z,357.00
2023-02-05T01:09:51.735Z,357.00
2023-02-05T01:10:05.763Z,357.00
2023-02-05T01:10:19.748Z,357.00
2023-02-05T01:10:33.734Z,357.00
2023-02-05T01:10:47.747Z,356.00
2023-02-05T01:11:01.744Z,356.00
2023-02-05T01:11:15.739Z,356.00
2023-02-05T01:11:29.722Z,356.00
2023-02-05T01:11:43.701Z,357.00
2023-02-05T01:12:11.637Z,356.00
2023-02-05T01:12:25.615Z,356.00
2023-02-05T01:12:39.602Z,357.00
2023-02-05T01:12:53.579Z,357.00
2023-02-05T01:13:07.574Z,358.00
2023-02-05T01:13:21.555Z,357.00
2023-02-05T01:13:35.560Z,356.00
2023-02-05T01:13:49.545Z,355.00
2023-02-05T01:14:03.559Z,354.00
2023-02-05T01:14:17.554Z,354.00
2023-02-05T01:14:31.537Z,353.00
2023-02-05T01:14:45.521Z,353.00
2023-02-05T01:14:59.507Z,353.00
2023-02-05T01:15:13.516Z,353.00
2023-02-05T01:15:27.533Z,353.00
2023-02-05T01:15:41.607Z,352.00
2023-02-05T01:15:55.690Z,353.00
2023-02-05T01:16:09.704Z,353.00
2023-02-05T01:16:23.730Z,353.00
2023-02-05T01:16:51.698Z,353.00
2023-02-05T01:17:05.680Z,353.00
2023-02-05T01:17:19.667Z,353.00
2023-02-05T01:17:33.643Z,352.00
2023-02-05T01:17:47.634Z,352.00
2023-02-05T01:18:01.611Z,352.00
2023-02-05T01:18:15.768Z,352.00
2023-02-05T01:18:29.746Z,352.00
2023-02-05T01:18:43.731Z,352.00
2023-02-05T01:18:57.713Z,352.00
2023-02-05T01:19:11.757Z,352.00
2023-02-05T01:19:25.977Z,352.00
2023-02-05T01:19:39.969Z,353.00
2023-02-05T01:19:53.951Z,353.00
2023-02-05T01:20:07.941Z,352.00
2023-02-05T01:20:21.954Z,351.00
2023-02-05T01:20:35.952Z,351.00
2023-02-05T01:20:49.949Z,352.00
2023-02-05T01:21:03.949Z,353.00
2023-02-05T01:21:17.942Z,354.00
2023-02-05T01:21:31.965Z,354.00
2023-02-05T01:21:59.908Z,355.00
2023-02-05T01:22:13.895Z,355.00
2023-02-05T01:22:27.901Z,356.00
2023-02-05T01:22:41.889Z,357.00
2023-02-05T01:22:55.881Z,357.00
2023-02-05T01:23:09.895Z,356.00
2023-02-05T01:23:23.908Z,356.00
2023-02-05T01:23:37.907Z,356.00
2023-02-05T01:23:51.925Z,357.00
2023-02-05T01:24:05.929Z,357.00
2023-02-05T01:24:19.961Z,357.00
2023-02-05T01:24:33.962Z,356.00
2023-02-05T01:24:47.957Z,355.00
2023-02-05T01:25:01.925Z,355.00
2023-02-05T01:25:15.942Z,355.00
2023-02-05T01:25:29.931Z,354.00
2023-02-05T01:25:43.927Z,353.00
2023-02-05T01:25:57.918Z,353.00
2023-02-05T01:26:11.905Z,352.00
2023-02-05T01:26:25.885Z,352.00
2023-02-05T01:26:39.908Z,352.00
2023-02-05T01:26:53.887Z,353.00
2023-02-05T01:27:07.885Z,352.00
2023-02-05T01:27:21.873Z,351.00
2023-02-05T01:27:35.861Z,350.00
2023-02-05T01:27:49.884Z,351.00
2023-02-05T01:28:03.960Z,351.00
2023-02-05T01:28:18.031Z,350.00
2023-02-05T01:28:32.048Z,350.00
2023-02-05T01:28:46.034Z,351.00
2023-02-05T01:29:00.056Z,351.00
2023-02-05T01:29:14.048Z,351.00
2023-02-05T01:29:29.407Z,351.00
2023-02-05T01:29:40.907Z,352.00
2023-02-05T01:30:08.886Z,353.00
2023-02-05T01:30:22.900Z,353.00
2023-02-05T01:30:36.960Z,353.00
2023-02-05T01:30:51.184Z,353.00
2023-02-05T01:31:05.330Z,353.00
2023-02-05T01:31:19.453Z,353.00
2023-02-05T01:31:33.626Z,353.00
2023-02-05T01:31:47.754Z,353.00
2023-02-05T01:32:01.791Z,353.00
2023-02-05T01:32:15.793Z,352.00
2023-02-05T01:32:29.783Z,352.00
2023-02-05T01:32:43.771Z,351.00
2023-02-05T01:32:57.752Z,352.00
2023-02-05T01:33:11.735Z,352.00
2023-02-05T01:33:25.741Z,352.00
2023-02-05T01:33:39.728Z,352.00
2023-02-05T01:33:53.711Z,352.00
2023-02-05T01:34:21.672Z,351.00
2023-02-05T01:34:35.654Z,351.00
2023-02-05T01:34:49.637Z,351.00
2023-02-05T01:35:03.622Z,352.00
2023-02-05T01:35:17.603Z,352.00
2023-02-05T01:35:32.113Z,352.00
2023-02-05T01:35:46.256Z,352.00
2023-02-05T01:36:00.277Z,352.00
2023-02-05T01:36:14.303Z,351.00
2023-02-05T01:36:28.292Z,351.00
2023-02-05T01:36:42.276Z,352.00
2023-02-05T01:36:56.287Z,352.00
2023-02-05T01:37:10.269Z,351.00
2023-02-05T01:37:24.266Z,351.00
2023-02-05T01:37:38.239Z,352.00
2023-02-05T01:37:52.228Z,351.00
2023-02-05T01:38:06.231Z,351.00
2023-02-05T01:38:20.220Z,352.00
2023-02-05T01:38:34.200Z,352.00
2023-02-05T01:38:48.192Z,352.00
2023-02-05T01:39:02.191Z,352.00
2023-02-05T01:39:16.185Z,353.00
2023-02-05T01:39:30.174Z,353.00
2023-02-05T01:39:44.171Z,354.00
2023-02-05T01:39:58.159Z,355.00
2023-02-05T01:40:12.159Z,354.00
2023-02-05T01:40:26.150Z,354.00
2023-02-05T01:40:40.133Z,353.00
2023-02-05T01:40:54.117Z,353.00
2023-02-05T01:41:08.115Z,353.00
2023-02-05T01:41:22.113Z,353.00
2023-02-05T01:41:36.100Z,353.00
2023-02-05T01:41:50.075Z,353.00
2023-02-05T01:42:04.061Z,354.00
2023-02-05T01:42:18.059Z,354.00
2023-02-05T01:42:32.076Z,354.00
2023-02-05T01:43:00.074Z,355.00
2023-02-05T01:43:14.078Z,354.00
2023-02-05T01:43:28.071Z,354.00
2023-02-05T01:43:42.067Z,355.00
2023-02-05T01:43:56.051Z,354.00
2023-02-05T01:44:10.033Z,354.00
2023-02-05T01:44:24.016Z,353.00
2023-02-05T01:44:37.997Z,353.00
2023-02-05T01:44:51.978Z,354.00
2023-02-05T01:45:05.976Z,353.00
2023-02-05T01:45:19.977Z,353.00
2023-02-05T01:45:34.264Z,353.00
2023-02-05T01:45:48.513Z,353.00
2023-02-05T01:46:02.570Z,353.00
2023-02-05T01:46:16.679Z,354.00
2023-02-05T01:46:30.742Z,354.00
2023-02-05T01:46:44.745Z,354.00
2023-02-05T01:46:58.724Z,354.00
2023-02-05T01:47:12.711Z,354.00
2023-02-05T01:47:40.671Z,354.00
2023-02-05T01:47:54.670Z,355.00
2023-02-05T01:48:08.701Z,355.00
2023-02-05T01:48:22.700Z,356.00
2023-02-05T01:48:36.718Z,355.00
2023-02-05T01:48:50.728Z,355.00
2023-02-05T01:49:04.725Z,355.00
2023-02-05T01:49:18.718Z,356.00
2023-02-05T01:49:32.702Z,357.00
2023-02-05T01:49:46.683Z,356.00
2023-02-05T01:50:00.668Z,356.00
2023-02-05T01:50:14.647Z,356.00
2023-02-05T01:50:28.660Z,357.00
2023-02-05T01:50:42.656Z,357.00
2023-02-05T01:50:56.638Z,357.00
2023-02-05T01:51:10.619Z,357.00
2023-02-05T01:51:24.610Z,357.00
2023-02-05T01:51:38.642Z,357.00
2023-02-05T01:51:52.636Z,356.00
2023-02-05T01:52:06.634Z,355.00
2023-02-05T01:52:20.642Z,356.00
2023-02-05T01:52:34.636Z,355.00
2023-02-05T01:52:48.623Z,355.00
2023-02-05T01:53:02.620Z,355.00
2023-02-05T01:53:16.625Z,355.00
2023-02-05T01:53:30.615Z,355.00
2023-02-05T01:53:44.595Z,355.00
2023-02-05T01:53:58.585Z,355.00
2023-02-05T01:54:12.566Z,356.00
2023-02-05T01:54:26.566Z,356.00
2023-02-05T01:54:40.557Z,357.00
2023-02-05T01:54:54.558Z,357.00
2023-02-05T01:55:08.541Z,358.00
2023-02-05T01:55:22.535Z,358.00
2023-02-05T01:55:50.490Z,359.00
2023-02-05T01:56:04.473Z,360.00
2023-02-05T01:56:18.465Z,359.00
2023-02-05T01:56:32.455Z,359.00
2023-02-05T01:56:46.469Z,358.00
2023-02-05T01:57:00.458Z,358.00
2023-02-05T01:57:14.452Z,359.00
2023-02-05T01:57:28.433Z,358.00
2023-02-05T01:57:42.421Z,357.00
2023-02-05T01:57:56.398Z,356.00
2023-02-05T01:58:10.386Z,356.00
2023-02-05T01:58:24.361Z,355.00
2023-02-05T01:58:38.363Z,356.00
2023-02-05T01:58:52.337Z,355.00
2023-02-05T01:59:07.973Z,355.00
2023-02-05T01:59:20.734Z,355.00
2023-02-05T01:59:34.732Z,355.00
2023-02-05T01:59:48.709Z,354.00
2023-02-05T02:00:02.698Z,354.00
2023-02-05T02:00:30.658Z,354.00
2023-02-05T02:00:44.643Z,354.00
2023-02-05T02:00:58.657Z,354.00
2023-02-05T02:01:12.776Z,355.00
2023-02-05T02:01:26.839Z,354.00
2023-02-05T02:01:40.904Z,355.00
2023-02-05T02:01:55.128Z,355.00
2023-02-05T02:02:09.157Z,355.00
2023-02-05T02:02:23.141Z,356.00
2023-02-05T02:02:37.126Z,358.00
2023-02-05T02:02:51.118Z,357.00
2023-02-05T02:03:05.113Z,357.00
2023-02-05T02:03:19.111Z,358.00
2023-02-05T02:03:33.112Z,358.00
2023-02-05T02:03:47.111Z,358.00
2023-02-05T02:04:01.114Z,358.00
2023-02-05T02:04:15.114Z,358.00
2023-02-05T02:04:29.098Z,359.00
2023-02-05T02:04:43.154Z,358.00
2023-02-05T02:05:11.159Z,360.00
2023-02-05T02:05:25.230Z,360.00
2023-02-05T02:05:39.244Z,360.00
2023-02-05T02:05:53.223Z,360.00
2023-02-05T02:06:07.223Z,359.00
2023-02-05T02:06:21.210Z,358.00
2023-02-05T02:06:35.219Z,358.00
2023-02-05T02:06:49.212Z,358.00
2023-02-05T02:07:03.224Z,357.00
2023-02-05T02:07:17.217Z,356.00
2023-02-05T02:07:31.215Z,355.00
2023-02-05T02:07:45.211Z,355.00
2023-02-05T02:07:59.203Z,354.00
2023-02-05T02:08:13.184Z,354.00
2023-02-05T02:08:27.174Z,354.00
2023-02-05T02:08:41.167Z,354.00
2023-02-05T02:08:55.161Z,355.00
2023-02-05T02:09:09.143Z,356.00
2023-02-05T02:09:23.135Z,355.00
2023-02-05T02:09:37.120Z,355.00
2023-02-05T02:09:51.110Z,355.00
2023-02-05T02:10:05.092Z,355.00
2023-02-05T02:10:19.091Z,354.00
2023-02-05T02:10:33.073Z,353.00
2023-02-05T02:10:47.062Z,352.00
2023-02-05T02:11:01.050Z,352.00
2023-02-05T02:11:15.080Z,352.00
2023-02-05T02:11:29.077Z,352.00
2023-02-05T02:11:43.069Z,352.00
2023-02-05T02:11:57.062Z,352.00
2023-02-05T02:12:11.057Z,352.00
2023-02-05T02:12:25.042Z,351.00
2023-02-05T02:12:39.039Z,351.00
2023-02-05T02:12:53.020Z,352.00
2023-02-05T02:13:20.980Z,351.00
2023-02-05T02:13:34.969Z,351.00
2023-02-05T02:13:48.950Z,351.00
2023-02-05T02:14:02.934Z,351.00
2023-02-05T02:14:16.921Z,351.00
2023-02-05T02:14:30.910Z,351.00
2023-02-05T02:14:44.896Z,351.00
2023-02-05T02:14:58.900Z,352.00
2023-02-05T02:15:12.885Z,351.00
2023-02-05T02:15:26.877Z,351.00
2023-02-05T02:15:40.929Z,351.00
2023-02-05T02:15:54.971Z,350.00
2023-02-05T02:16:09.075Z,351.00
2023-02-05T02:16:23.145Z,351.00
2023-02-05T02:16:37.187Z,352.00
2023-02-05T02:16:51.196Z,352.00
2023-02-05T02:17:05.180Z,351.00
2023-02-05T02:17:19.166Z,351.00
2023-02-05T02:17:33.139Z,352.00
2023-02-05T02:18:01.143Z,351.00
2023-02-05T02:18:15.140Z,352.00
2023-02-05T02:18:29.144Z,352.00
2023-02-05T02:18:43.178Z,353.00
2023-02-05T02:18:57.163Z,353.00
2023-02-05T02:19:11.159Z,353.00
2023-02-05T02:19:25.145Z,353.00
2023-02-05T02:19:39.137Z,355.00
2023-02-05T02:19:53.131Z,354.00
2023-02-05T02:20:07.145Z,355.00
2023-02-05T02:20:21.150Z,355.00
2023-02-05T02:20:35.168Z,355.00
2023-02-05T02:20:49.156Z,355.00
2023-02-05T02:21:03.163Z,354.00
2023-02-05T02:21:17.142Z,354.00
2023-02-05T02:21:31.145Z,354.00
2023-02-05T02:21:45.132Z,354.00
2023-02-05T02:21:59.119Z,353.00
2023-02-05T02:22:13.115Z,353.00
2023-02-05T02:22:41.076Z,354.00
2023-02-05T02:22:55.065Z,355.00
2023-02-05T02:23:09.049Z,354.00
2023-02-05T02:23:23.039Z,355.00
2023-02-05T02:23:37.040Z,355.00
2023-02-05T02:23:51.035Z,354.00
2023-02-05T02:24:05.039Z,354.00
2023-02-05T02:24:19.040Z,353.00
2023-02-05T02:24:33.038Z,352.00
2023-02-05T02:24:47.045Z,351.00
2023-02-05T02:25:01.030Z,351.00
2023-02-05T02:25:15.031Z,352.00
2023-02-05T02:25:29.034Z,352.00
2023-02-05T02:25:43.027Z,351.00
2023-02-05T02:26:11.023Z,351.00
2023-02-05T02:26:25.022Z,351.00
2023-02-05T02:26:39.019Z,350.00
2023-02-05T02:26:53.013Z,350.00
2023-02-05T02:27:07.022Z,350.00
2023-02-05T02:27:21.007Z,351.00
2023-02-05T02:27:35.005Z,351.00
2023-02-05T02:27:49.086Z,351.00
2023-02-05T02:28:03.149Z,352.00
2023-02-05T02:28:17.209Z,353.00
2023-02-05T02:28:31.205Z,352.00
2023-02-05T02:28:45.196Z,352.00
2023-02-05T02:28:59.187Z,353.00
2023-02-05T02:29:13.176Z,353.00
2023-02-05T02:29:27.170Z,353.00
2023-02-05T02:29:41.155Z,354.00
2023-02-05T02:29:55.176Z,354.00
2023-02-05T02:30:09.168Z,354.00
2023-02-05T02:30:23.204Z,354.00
2023-02-05T02:30:51.214Z,353.00
2023-02-05T02:31:05.360Z,353.00
2023-02-05T02:31:19.423Z,353.00
2023-02-05T02:31:33.491Z,353.00
2023-02-05T02:31:47.494Z,353.00
2023-02-05T02:32:01.493Z,353.00
2023-02-05T02:32:15.528Z,353.00
2023-02-05T02:32:29.516Z,354.00
2023-02-05T02:32:43.509Z,354.00
2023-02-05T02:32:57.495Z,355.00
2023-02-05T02:33:11.489Z,355.00
2023-02-05T02:33:25.468Z,355.00
2023-02-05T02:33:39.452Z,355.00
2023-02-05T02:33:53.435Z,355.00
2023-02-05T02:34:07.424Z,354.00
2023-02-05T02:34:21.412Z,355.00
2023-02-05T02:34:35.423Z,354.00
2023-02-05T02:34:49.424Z,353.00
2023-02-05T02:35:03.403Z,354.00
2023-02-05T02:35:31.760Z,354.00
2023-02-05T02:35:45.852Z,354.00
2023-02-05T02:35:59.850Z,354.00
2023-02-05T02:36:13.842Z,353.00
2023-02-05T02:36:27.835Z,353.00
2023-02-05T02:36:41.821Z,355.00
2023-02-05T02:36:55.811Z,355.00
2023-02-05T02:37:09.797Z,355.00
2023-02-05T02:37:23.792Z,355.00
2023-02-05T02:37:37.789Z,355.00
2023-02-05T02:37:51.779Z,356.00
2023-02-05T02:38:05.762Z,356.00
2023-02-05T02:38:19.762Z,356.00
2023-02-05T02:38:33.743Z,356.00
2023-02-05T02:38:47.736Z,356.00
2023-02-05T02:39:01.709Z,356.00
2023-02-05T02:39:15.700Z,356.00
2023-02-05T02:39:29.687Z,355.00
2023-02-05T02:39:43.668Z,356.00
2023-02-05T02:40:11.633Z,356.00
2023-02-05T02:40:25.672Z,356.00
2023-02-05T02:40:39.669Z,355.00
2023-02-05T02:40:53.657Z,354.00
2023-02-05T02:41:07.643Z,354.00
2023-02-05T02:41:21.624Z,354.00
2023-02-05T02:41:35.620Z,353.00
2023-02-05T02:41:49.602Z,353.00
2023-02-05T02:42:03.600Z,353.00
2023-02-05T02:42:17.589Z,353.00
2023-02-05T02:42:31.623Z,353.00
2023-02-05T02:42:45.607Z,352.00
2023-02-05T02:42:59.600Z,353.00
2023-02-05T02:43:13.579Z,353.00
2023-02-05T02:43:41.554Z,353.00
2023-02-05T02:43:55.555Z,353.00
2023-02-05T02:44:09.560Z,353.00
2023-02-05T02:44:23.552Z,354.00
2023-02-05T02:44:37.556Z,353.00
2023-02-05T02:44:51.561Z,353.00
2023-02-05T02:45:05.544Z,352.00
2023-02-05T02:45:19.532Z,352.00
2023-02-05T02:45:33.821Z,351.00
2023-02-05T02:45:48.012Z,352.00
2023-02-05T02:46:02.003Z,351.00
2023-02-05T02:46:16.054Z,350.00
2023-02-05T02:46:30.171Z,351.00
2023-02-05T02:46:44.234Z,351.00
2023-02-05T02:46:58.301Z,351.00
2023-02-05T02:47:12.293Z,351.00
2023-02-05T02:47:26.283Z,352.00
2023-02-05T02:47:40.285Z,351.00
2023-02-05T02:47:54.276Z,351.00
2023-02-05T02:48:08.267Z,351.00
2023-02-05T02:48:22.270Z,352.00
2023-02-05T02:48:50.234Z,351.00
2023-02-05T02:49:04.240Z,350.00
2023-02-05T02:49:18.216Z,350.00
2023-02-05T02:49:32.206Z,350.00
2023-02-05T02:49:46.201Z,350.00
2023-02-05T02:50:00.215Z,350.00
2023-02-05T02:50:14.204Z,350.00
2023-02-05T02:50:28.194Z,351.00
2023-02-05T02:50:42.182Z,350.00
2023-02-05T02:50:56.172Z,351.00
2023-02-05T02:51:10.162Z,351.00
2023-02-05T02:51:24.168Z,351.00
2023-02-05T02:51:38.161Z,351.00
2023-02-05T02:51:52.154Z,352.00
2023-02-05T02:52:06.167Z,352.00
2023-02-05T02:52:20.173Z,354.00
2023-02-05T02:52:34.181Z,353.00
2023-02-05T02:52:48.172Z,353.00
2023-02-05T02:53:02.158Z,353.00
2023-02-05T02:53:30.146Z,353.00
2023-02-05T02:53:44.146Z,352.00
2023-02-05T02:53:58.137Z,351.00
2023-02-05T02:54:12.139Z,351.00
2023-02-05T02:54:26.124Z,351.00
2023-02-05T02:54:40.116Z,350.00
2023-02-05T02:54:54.098Z,350.00
2023-02-05T02:55:08.094Z,349.00
2023-02-05T02:55:22.086Z,349.00
2023-02-05T02:55:36.250Z,348.00
2023-02-05T02:55:50.328Z,348.00
2023-02-05T02:56:04.330Z,349.00
2023-02-05T02:56:18.326Z,349.00
2023-02-05T02:56:32.328Z,350.00
2023-02-05T02:56:46.342Z,350.00
2023-02-05T02:57:00.341Z,350.00
2023-02-05T02:57:14.327Z,350.00
2023-02-05T02:57:28.326Z,350.00
2023-02-05T02:57:42.319Z,349.00
2023-02-05T02:57:56.307Z,349.00
2023-02-05T02:58:10.280Z,350.00
2023-02-05T02:58:24.282Z,350.00
2023-02-05T02:58:38.275Z,350.00
2023-02-05T02:58:52.271Z,349.00
2023-02-05T02:59:06.287Z,349.00
2023-02-05T02:59:20.302Z,350.00
2023-02-05T02:59:34.290Z,350.00
2023-02-05T02:59:48.277Z,350.00
2023-02-05T03:00:02.271Z,351.00
2023-02-05T03:00:16.264Z,351.00
2023-02-05T03:00:30.324Z,352.00
2023-02-05T03:00:44.358Z,352.00
2023-02-05T03:00:58.503Z,351.00
2023-02-05T03:01:12.540Z,351.00
2023-02-05T03:01:26.566Z,351.00
2023-02-05T03:01:42.558Z,351.00
2023-02-05T03:01:54.207Z,353.00
2023-02-05T03:02:08.192Z,354.00
2023-02-05T03:02:22.176Z,353.00
2023-02-05T03:02:36.169Z,353.00
2023-02-05T03:02:50.154Z,354.00
2023-02-05T03:03:04.164Z,354.00